首页
METAR-TAF:

METAR-TAF

机场 :

Dinwiddie County Airport

彼得斯堡, 弗吉尼亚州, 美国

纬度: 37-11N, 经度: 077-31W, 海拔: 59米

当前天气观测

该预报发布于22分钟前的11:15 UTC
风速8节,风向南转南东
温度 15°C
湿度 94%
气压 1003 hPa
能見度: 8.0公里
阴天层高于700英尺
小雨

METAR: KPTB 241115Z AUTO 15008KT 5SM -RA OVC007 15/14 A2961 RMK AO2 P0002 T01490137

时间: 06:37 (11:37 UTC)


TAF: 丢失

超过4000个机场的气象观测和天气预报(METAR&TAF报告)。

可查询的气象台以黄色和红色小点在地图上表示。

将鼠标移到小点上方,可查看气象台名称。

然后点击查看天气观测和预报。

如需切换地图:点击带黑十字的绿色按钮放大地图;点击带横线的绿色按钮缩小地图;或者点击绿色箭头查看邻近地区的地图。


METAR-TAF: